Time;durP1;ratioP1;P1;durP2;ratioP2;P2;SDS_P1;SDS_P2;PMS_P1;PMS_P2;Temp;Humidity;BMP_temperature;BMP_pressure;BME280_temperature;BME280_humidity;BME280_pressure;Samples;Min_cycle;Max_cycle;Signal;HPM_P1;HPM_P2
2022/12/09 00:00:01;;;;;;;30.90;16.60;;;;;;;2.12;86.54;97699.63;103395;1304;23040;-75
2022/12/09 00:02:28;;;;;;;34.40;18.30;;;;;;;2.13;86.22;97693.64;103224;1297;138211;-74
2022/12/09 00:04:55;;;;;;;37.50;19.30;;;;;;;2.12;85.99;97696.70;103297;1296;22469;-75
2022/12/09 00:07:22;;;;;;;32.60;18.40;;;;;;;2.11;86.02;97690.77;103059;1299;22531;-75
2022/12/09 00:09:49;;;;;;;36.60;19.80;;;;;;;2.11;86.19;97688.80;103274;1289;138417;-74
2022/12/09 00:12:16;;;;;;;40.40;21.60;;;;;;;2.11;85.83;97685.96;103130;1291;22492;-74
2022/12/09 00:14:42;;;;;;;35.50;20.20;;;;;;;2.11;85.91;97689.23;103204;1298;139106;-74
2022/12/09 00:17:09;;;;;;;40.00;22.70;;;;;;;2.10;85.98;97691.98;103236;1297;24335;-75
2022/12/09 00:19:36;;;;;;;42.70;21.60;;;;;;;2.11;86.22;97695.66;103669;1312;22606;-75
2022/12/09 00:22:03;;;;;;;43.10;22.40;;;;;;;2.12;86.13;97689.14;104711;1291;138834;-75
2022/12/09 00:24:30;;;;;;;47.00;23.00;;;;;;;2.11;86.15;97687.95;103112;1313;22459;-75
2022/12/09 00:26:57;;;;;;;45.50;23.00;;;;;;;2.11;86.01;97688.81;103019;1287;138092;-75
2022/12/09 00:29:23;;;;;;;43.90;22.20;;;;;;;2.10;86.21;97688.39;103286;1291;23220;-75
2022/12/09 00:31:50;;;;;;;41.90;21.90;;;;;;;2.11;86.22;97695.50;103377;1304;22480;-75
2022/12/09 00:34:17;;;;;;;40.50;22.90;;;;;;;2.05;85.62;97697.29;103077;1298;138910;-75
2022/12/09 00:36:44;;;;;;;43.70;22.90;;;;;;;1.99;85.79;97694.41;103185;1289;22547;-75
2022/12/09 00:39:11;;;;;;;37.30;20.00;;;;;;;1.93;85.96;97701.52;102795;1301;138120;-75
2022/12/09 00:41:38;;;;;;;43.00;20.20;;;;;;;1.85;85.80;97709.05;103327;1290;22500;-75
2022/12/09 00:44:05;;;;;;;40.50;21.40;;;;;;;1.78;86.18;97711.49;103252;1303;23189;-75
2022/12/09 00:46:32;;;;;;;37.80;19.80;;;;;;;1.77;86.63;97713.35;103574;1290;138009;-75
2022/12/09 00:48:59;;;;;;;38.10;19.30;;;;;;;1.78;86.76;97712.64;103164;1298;23293;-75
2022/12/09 00:51:25;;;;;;;36.10;20.00;;;;;;;1.79;86.67;97712.48;103262;1289;138550;-75
2022/12/09 00:53:54;;;;;;;39.80;20.50;;;;;;;1.81;86.86;97711.33;103451;1289;26048;-73
2022/12/09 00:56:23;;;;;;;39.90;20.70;;;;;;;1.81;86.68;97714.50;103197;1297;139029;-73
2022/12/09 00:58:50;;;;;;;41.40;21.50;;;;;;;1.83;86.77;97710.53;103433;1306;22490;-73
2022/12/09 01:01:17;;;;;;;41.80;21.20;;;;;;;1.85;86.80;97712.39;103166;1288;24463;-73
2022/12/09 01:03:44;;;;;;;37.30;20.80;;;;;;;1.86;86.63;97714.11;103198;1295;138542;-73
2022/12/09 01:06:15;;;;;;;39.10;20.10;;;;;;;1.87;86.83;97713.86;103326;1291;24018;-73
2022/12/09 01:08:42;;;;;;;39.80;20.80;;;;;;;1.89;86.42;97714.73;103054;1305;138878;-73
2022/12/09 01:11:12;;;;;;;38.30;20.20;;;;;;;1.87;86.25;97713.21;103313;1304;23034;-73
2022/12/09 01:13:38;;;;;;;;;;;;;;;1.84;86.18;97714.50;103190;1288;24338;-73
2022/12/09 01:16:14;;;;;;;39.70;21.80;;;;;;;1.81;86.29;97716.31;103446;1295;124190;-73
2022/12/09 01:18:41;;;;;;;46.50;22.20;;;;;;;1.79;86.47;97715.04;103092;1299;22487;-73
2022/12/09 01:21:07;;;;;;;42.10;23.40;;;;;;;1.78;86.59;97713.50;103033;1285;138615;-73
2022/12/09 01:23:34;;;;;;;41.20;21.20;;;;;;;1.78;86.69;97714.34;103131;1313;22537;-73
2022/12/09 01:26:06;;;;;;;44.30;22.10;;;;;;;1.79;86.82;97713.41;103176;1289;25626;-73
2022/12/09 01:28:36;;;;;;;41.70;21.60;;;;;;;1.79;86.77;97716.10;103435;1294;137879;-73
2022/12/09 01:31:16;;;;;;;42.80;22.60;;;;;;;1.78;86.90;97710.66;103208;1289;22483;-73
2022/12/09 01:33:43;;;;;;;42.40;21.40;;;;;;;1.79;86.93;97714.33;103071;1312;138444;-74
2022/12/09 01:36:14;;;;;;;41.50;22.40;;;;;;;1.78;87.04;97713.84;103262;1291;22512;-74
2022/12/09 01:38:41;;;;;;;46.70;22.50;;;;;;;1.79;86.79;97710.56;103531;1306;138920;-74
2022/12/09 01:41:08;;;;;;;40.10;20.40;;;;;;;1.78;86.60;97711.19;103336;1291;22689;-73
2022/12/09 01:43:37;;;;;;;40.00;21.50;;;;;;;1.77;86.61;97709.34;103937;1304;25273;-74
2022/12/09 01:46:05;;;;;;;40.50;20.40;;;;;;;1.78;86.67;97707.02;103143;1291;139569;-74
2022/12/09 01:48:37;;;;;;;41.50;21.10;;;;;;;1.81;86.71;97709.95;103246;1288;23095;-73
2022/12/09 01:51:12;;;;;;;32.00;18.80;;;;;;;1.82;86.72;97713.09;103138;1312;138229;-74
2022/12/09 01:53:42;;;;;;;36.40;19.70;;;;;;;1.85;86.62;97715.98;103560;1305;22484;-74
2022/12/09 01:56:15;;;;;;;37.90;19.00;;;;;;;1.86;86.56;97714.73;103133;1298;22490;-74
2022/12/09 01:58:44;;;;;;;41.00;20.10;;;;;;;1.88;86.88;97710.38;103210;1292;26884;-74
2022/12/09 02:01:15;;;;;;;35.50;19.80;;;;;;;1.90;86.44;97709.58;103781;1296;22497;-74
2022/12/09 02:03:42;;;;;;;43.60;20.70;;;;;;;1.92;86.55;97705.39;103093;1288;138169;-74
2022/12/09 02:06:09;;;;;;;40.10;21.60;;;;;;;1.92;86.41;97701.56;103140;1304;22483;-74
2022/12/09 02:08:36;;;;;;;38.40;20.40;;;;;;;1.92;86.13;97696.27;102821;1289;138656;-74
2022/12/09 02:11:27;;;;;;;42.70;20.30;;;;;;;1.93;86.03;97697.96;103063;1312;22519;-74
2022/12/09 02:14:05;;;;;;;34.00;18.90;;;;;;;1.93;86.08;97700.23;103072;1312;25439;-74
2022/12/09 02:16:40;;;;;;;37.40;19.20;;;;;;;1.92;85.71;97698.64;103098;1307;137949;-74
2022/12/09 02:19:43;;;;;;;32.00;17.70;;;;;;;1.91;85.52;97694.20;103375;1310;22651;-74
2022/12/09 02:22:16;;;;;;;35.50;18.50;;;;;;;1.92;85.51;97689.76;102655;1312;138428;-74
2022/12/09 02:24:59;;;;;;;39.50;19.80;;;;;;;1.93;85.73;97684.64;103273;1304;22607;-74
2022/12/09 02:27:35;;;;;;;40.10;19.30;;;;;;;1.96;85.49;97679.75;103020;1286;138229;-73
2022/12/09 02:30:17;;;;;;;31.70;18.10;;;;;;;1.97;85.23;97680.91;103101;1297;22494;-73
2022/12/09 02:33:10;;;;;;;35.10;18.50;;;;;;;1.98;85.22;97678.63;103105;1298;139610;-74
2022/12/09 02:35:44;;;;;;;36.80;19.10;;;;;;;1.96;84.93;97677.28;102988;1297;25405;-74
2022/12/09 02:38:14;;;;;;;37.10;18.30;;;;;;;1.97;85.07;97680.86;103290;1311;22530;-74
2022/12/09 02:40:51;;;;;;;40.30;19.90;;;;;;;1.97;85.00;97677.80;103185;1304;22614;-73
2022/12/09 02:43:25;;;;;;;36.60;19.30;;;;;;;1.97;85.18;97673.92;103080;1289;24285;-74
2022/12/09 02:45:55;;;;;;;33.50;18.30;;;;;;;1.98;85.40;97672.73;103148;1303;138147;-74
2022/12/09 02:48:24;;;;;;;;;;;;;;;1.99;85.60;97672.76;103459;1310;22451;-74
2022/12/09 02:50:53;;;;;;;34.80;19.10;;;;;;;2.00;85.77;97668.88;103226;1304;125097;-74
2022/12/09 02:53:22;;;;;;;33.20;18.40;;;;;;;2.00;85.59;97670.48;103269;1313;22902;-74
2022/12/09 02:55:51;;;;;;;31.60;17.30;;;;;;;2.00;85.39;97668.84;103405;1301;22236;-74
2022/12/09 02:58:19;;;;;;;35.50;18.20;;;;;;;2.01;85.62;97672.52;102956;1310;138970;-74
2022/12/09 03:00:46;;;;;;;31.10;17.50;;;;;;;2.01;85.40;97672.79;102894;1295;22532;-74
2022/12/09 03:03:16;;;;;;;33.40;18.60;;;;;;;2.02;85.68;97677.30;102970;1304;138072;-74
2022/12/09 03:05:48;;;;;;;35.70;19.60;;;;;;;2.02;85.53;97678.78;103036;1298;22934;-74
2022/12/09 03:08:49;;;;;;;41.40;21.60;;;;;;;2.00;85.67;97686.45;103095;1288;22485;-74
2022/12/09 03:11:20;;;;;;;45.10;23.00;;;;;;;1.96;86.05;97683.52;103230;1311;22578;-74
2022/12/09 03:14:11;;;;;;;54.40;30.40;;;;;;;1.94;86.42;97682.35;103161;1312;24316;-74
2022/12/09 03:16:48;;;;;;;58.90;31.00;;;;;;;1.91;86.87;97677.58;103409;1287;138010;-74
2022/12/09 03:19:32;;;;;;;47.40;26.80;;;;;;;1.90;87.05;97670.17;103312;1288;22468;-74
2022/12/09 03:22:05;;;;;;;43.20;25.90;;;;;;;1.89;87.11;97664.97;102999;1310;138164;-74
2022/12/09 03:24:49;;;;;;;44.10;24.90;;;;;;;1.89;87.18;97663.20;103526;1298;22477;-74
2022/12/09 03:27:24;;;;;;;42.70;23.10;;;;;;;1.89;87.56;97660.80;103068;1311;139733;-74
2022/12/09 03:29:51;;;;;;;43.40;23.40;;;;;;;1.91;87.69;97660.54;103279;1289;22504;-74
2022/12/09 03:32:21;;;;;;;45.80;23.50;;;;;;;1.93;87.84;97656.55;103105;1291;25261;-74
2022/12/09 03:34:52;;;;;;;45.00;24.40;;;;;;;1.94;87.83;97656.79;103337;1310;22470;-74
2022/12/09 03:37:20;;;;;;;38.40;22.30;;;;;;;1.94;87.99;97655.42;103246;1287;22526;-74
2022/12/09 03:39:48;;;;;;;45.70;23.30;;;;;;;1.94;87.86;97661.45;102976;1288;138669;-73
2022/12/09 03:42:20;;;;;;;46.30;26.00;;;;;;;1.93;88.01;97664.67;103176;1288;24247;-74
2022/12/09 03:45:12;;;;;;;43.10;23.70;;;;;;;1.91;87.98;97660.92;103175;1305;138207;-74
2022/12/09 03:47:39;;;;;;;40.00;21.70;;;;;;;1.91;88.08;97661.55;103075;1312;22902;-74
2022/12/09 03:50:07;;;;;;;46.10;24.60;;;;;;;1.89;88.03;97664.19;103146;1296;22604;-74
2022/12/09 03:52:43;;;;;;;44.60;22.70;;;;;;;1.88;88.06;97666.67;103210;1291;139782;-73
2022/12/09 03:55:29;;;;;;;46.90;24.50;;;;;;;1.86;87.97;97665.17;103049;1289;22465;-73
2022/12/09 03:57:58;;;;;;;47.70;25.50;;;;;;;1.82;87.67;97659.23;103093;1282;138118;-73
2022/12/09 04:00:26;;;;;;;43.30;23.00;;;;;;;1.82;87.97;97662.02;103320;1287;25340;-73
2022/12/09 04:02:53;;;;;;;45.80;24.50;;;;;;;1.81;87.98;97665.48;102987;1281;138895;-73
2022/12/09 04:05:20;;;;;;;44.10;24.20;;;;;;;1.80;87.90;97665.10;103328;1291;25323;-73
2022/12/09 04:07:47;;;;;;;46.20;24.30;;;;;;;1.79;87.97;97663.75;103131;1280;24217;-73
2022/12/09 04:10:14;;;;;;;46.50;24.90;;;;;;;1.79;87.98;97668.49;102930;1303;138105;-73
2022/12/09 04:12:41;;;;;;;47.00;26.30;;;;;;;1.76;87.87;97667.42;103019;1297;24259;-73
2022/12/09 04:15:08;;;;;;;43.00;25.40;;;;;;;1.70;87.93;97671.40;103029;1281;139375;-73
2022/12/09 04:17:35;;;;;;;45.20;25.80;;;;;;;1.66;88.04;97673.63;103438;1304;22555;-73
2022/12/09 04:20:03;;;;;;;51.60;27.60;;;;;;;1.60;88.16;97670.45;103306;1291;22473;-73
2022/12/09 04:22:30;;;;;;;43.90;25.40;;;;;;;1.59;88.45;97669.54;103100;1288;138116;-73
2022/12/09 04:24:56;;;;;;;47.00;26.40;;;;;;;1.58;88.53;97666.32;103179;1298;25536;-73
2022/12/09 04:27:23;;;;;;;47.30;24.50;;;;;;;1.57;88.50;97662.20;103085;1296;138332;-73
2022/12/09 04:29:50;;;;;;;42.40;25.70;;;;;;;1.53;88.45;97659.47;103121;1295;22546;-73
2022/12/09 04:32:17;;;;;;;43.40;25.10;;;;;;;1.51;88.63;97664.86;103143;1287;22553;-73
2022/12/09 04:34:44;;;;;;;47.80;25.50;;;;;;;1.49;88.70;97659.19;103248;1297;137965;-73
2022/12/09 04:37:11;;;;;;;43.80;24.30;;;;;;;1.49;88.72;97661.42;103123;1307;22480;-73
2022/12/09 04:39:40;;;;;;;41.90;23.60;;;;;;;1.48;88.59;97663.39;102973;1291;138090;-73
2022/12/09 04:42:07;;;;;;;47.70;23.30;;;;;;;1.45;88.59;97659.77;103161;1298;22525;-73
2022/12/09 04:44:34;;;;;;;42.30;23.60;;;;;;;1.43;88.63;97665.80;103082;1290;138393;-73
2022/12/09 04:47:01;;;;;;;40.80;22.70;;;;;;;1.42;88.55;97664.63;103019;1297;22743;-73
2022/12/09 04:49:28;;;;;;;47.50;23.90;;;;;;;1.40;88.64;97660.46;103150;1297;24286;-73
2022/12/09 04:51:54;;;;;;;42.40;23.80;;;;;;;1.38;88.48;97658.11;103043;1288;138054;-73
2022/12/09 04:54:21;;;;;;;38.80;22.00;;;;;;;1.35;88.38;97668.09;103214;1313;24236;-73
2022/12/09 04:56:48;;;;;;;44.00;23.10;;;;;;;1.34;88.67;97669.86;103072;1309;138378;-73
2022/12/09 04:59:15;;;;;;;49.10;24.80;;;;;;;1.33;88.51;97667.14;103104;1297;22490;-73
2022/12/09 05:01:42;;;;;;;45.60;24.30;;;;;;;1.31;88.29;97670.90;103131;1288;22537;-73
2022/12/09 05:04:09;;;;;;;46.90;24.60;;;;;;;1.30;88.35;97674.15;102927;1301;138458;-73
2022/12/09 05:06:36;;;;;;;45.90;23.90;;;;;;;1.28;88.25;97674.20;102982;1297;22474;-73
2022/12/09 05:09:03;;;;;;;43.30;23.60;;;;;;;1.27;88.38;97678.11;103089;1312;138206;-73
2022/12/09 05:11:30;;;;;;;44.10;23.30;;;;;;;1.27;88.34;97676.48;103201;1281;25255;-73
2022/12/09 05:13:57;;;;;;;45.60;22.80;;;;;;;1.27;88.51;97681.70;103146;1290;25262;-73
2022/12/09 05:16:24;;;;;;;43.90;22.80;;;;;;;1.27;88.57;97678.61;103091;1309;138140;-73
2022/12/09 05:18:51;;;;;;;45.00;24.00;;;;;;;1.28;88.71;97681.54;103134;1288;25267;-73
2022/12/09 05:21:19;;;;;;;45.00;22.80;;;;;;;1.28;88.64;97677.25;103141;1300;138344;-74
2022/12/09 05:23:47;;;;;;;44.10;23.20;;;;;;;1.29;88.70;97674.11;103359;1302;22490;-73
2022/12/09 05:26:16;;;;;;;43.70;23.90;;;;;;;1.29;88.60;97673.86;103063;1289;22501;-73
2022/12/09 05:28:44;;;;;;;48.70;25.40;;;;;;;1.27;88.43;97671.22;102999;1289;138239;-73
2022/12/09 05:31:16;;;;;;;47.40;25.20;;;;;;;1.27;88.30;97669.73;103164;1281;23843;-73
2022/12/09 05:33:44;;;;;;;46.30;25.70;;;;;;;1.26;88.29;97668.09;102181;1295;1228307;-73
2022/12/09 05:36:13;;;;;;;47.60;25.30;;;;;;;1.24;88.22;97667.63;103277;1296;24372;-73
2022/12/09 05:38:40;;;;;;;47.10;25.10;;;;;;;1.20;88.17;97664.70;103101;1286;138665;-73
2022/12/09 05:41:08;;;;;;;44.60;26.30;;;;;;;1.17;87.95;97671.71;103160;1297;23064;-73
2022/12/09 05:43:35;;;;;;;47.80;25.90;;;;;;;1.13;88.08;97670.63;103178;1298;22622;-73
2022/12/09 05:46:04;;;;;;;42.40;25.20;;;;;;;1.09;88.02;97666.70;103101;1296;138157;-73
2022/12/09 05:48:31;;;;;;;46.20;24.90;;;;;;;1.05;88.04;97663.35;103288;1305;22619;-73
2022/12/09 05:51:05;;;;;;;44.00;24.80;;;;;;;1.01;87.93;97664.09;103237;1304;138374;-73
2022/12/09 05:53:33;;;;;;;50.30;24.40;;;;;;;0.95;87.97;97666.07;103174;1291;23916;-73
2022/12/09 05:56:00;;;;;;;47.70;25.90;;;;;;;0.91;88.03;97667.91;103277;1287;22478;-73
2022/12/09 05:58:27;;;;;;;52.00;25.10;;;;;;;0.85;87.95;97666.13;103153;1301;138220;-73
2022/12/09 06:00:57;;;;;;;46.20;25.70;;;;;;;0.82;88.26;97665.54;103027;1311;22562;-73
2022/12/09 06:03:24;;;;;;;46.70;26.80;;;;;;;0.79;88.43;97663.54;103016;1305;138604;-74
2022/12/09 06:05:51;;;;;;;50.30;27.10;;;;;;;0.73;88.28;97661.96;103175;1288;22497;-73
2022/12/09 06:08:18;;;;;;;52.30;28.50;;;;;;;0.69;88.52;97664.18;103010;1312;22508;-73
2022/12/09 06:10:45;;;;;;;50.20;26.70;;;;;;;0.65;88.60;97666.83;103464;1290;138388;-74
2022/12/09 06:13:12;;;;;;;49.20;27.40;;;;;;;0.62;88.61;97667.73;103390;1297;22954;-73
2022/12/09 06:15:39;;;;;;;54.70;29.20;;;;;;;0.59;88.83;97667.64;102997;1288;138096;-73
2022/12/09 06:18:06;;;;;;;52.70;28.20;;;;;;;0.55;88.93;97670.84;103204;1298;25339;-74
2022/12/09 06:20:33;;;;;;;56.10;29.60;;;;;;;0.54;89.04;97666.31;104238;1288;138646;-74
2022/12/09 06:23:00;;;;;;;59.10;30.00;;;;;;;0.52;89.36;97668.98;103961;1289;24241;-74
2022/12/09 06:25:27;;;;;;;52.40;28.50;;;;;;;0.52;89.52;97669.02;103851;1282;25371;-74
2022/12/09 06:27:53;;;;;;;50.10;28.00;;;;;;;0.51;89.52;97671.58;103273;1292;138089;-74
2022/12/09 06:30:21;;;;;;;56.40;30.90;;;;;;;0.51;89.52;97677.19;103099;1297;22508;-74
2022/12/09 06:32:48;;;;;;;57.60;31.10;;;;;;;0.52;89.86;97680.60;103089;1289;138755;-73
2022/12/09 06:35:14;;;;;;;57.40;28.50;;;;;;;0.53;89.87;97679.45;103460;1297;22500;-74
2022/12/09 06:37:41;;;;;;;56.60;28.20;;;;;;;0.50;89.41;97684.14;103002;1281;25219;-74
2022/12/09 06:40:09;;;;;;;54.10;28.40;;;;;;;0.48;89.65;97682.56;103151;1296;138141;-74
2022/12/09 06:42:36;;;;;;;51.40;28.30;;;;;;;0.48;89.84;97682.60;103158;1312;22503;-74
2022/12/09 06:45:03;;;;;;;52.80;29.30;;;;;;;0.48;89.77;97676.30;102941;1287;138247;-74
2022/12/09 06:47:30;;;;;;;52.50;29.70;;;;;;;0.49;89.92;97678.86;103201;1298;22502;-74
2022/12/09 06:50:00;;;;;;;69.40;31.40;;;;;;;0.50;90.16;97681.30;103054;1287;22509;-74
2022/12/09 06:52:27;;;;;;;54.00;29.40;;;;;;;0.51;90.12;97678.42;103877;1289;138231;-74
2022/12/09 06:54:54;;;;;;;59.70;30.10;;;;;;;0.50;89.97;97677.80;103530;1289;22494;-74
2022/12/09 06:57:21;;;;;;;52.30;29.50;;;;;;;0.50;89.84;97676.81;103307;1312;138143;-74
2022/12/09 06:59:48;;;;;;;50.80;28.90;;;;;;;0.50;89.86;97680.55;103777;1297;22448;-74
2022/12/09 07:02:15;;;;;;;51.70;29.20;;;;;;;0.50;90.12;97674.21;103142;1287;24262;-74
2022/12/09 07:04:42;;;;;;;56.80;30.10;;;;;;;0.52;90.17;97677.92;103051;1309;138541;-75
2022/12/09 07:07:10;;;;;;;52.20;27.80;;;;;;;0.52;90.06;97676.36;103111;1312;22493;-74
2022/12/09 07:09:38;;;;;;;60.30;29.90;;;;;;;0.53;90.19;97678.14;103174;1303;138977;-75
2022/12/09 07:12:05;;;;;;;55.90;29.10;;;;;;;0.56;90.42;97682.39;106322;1312;22201;-75
2022/12/09 07:14:32;;;;;;;54.70;30.10;;;;;;;0.60;90.64;97685.88;105133;1280;138727;-75
2022/12/09 07:16:59;;;;;;;57.70;30.90;;;;;;;0.66;90.89;97687.42;104269;1288;24545;-75
2022/12/09 07:19:26;;;;;;;54.40;29.30;;;;;;;0.70;90.58;97688.17;104203;1303;22496;-75
2022/12/09 07:21:53;;;;;;;50.40;27.60;;;;;;;0.75;90.60;97689.76;103125;1309;138311;-75
2022/12/09 07:24:20;;;;;;;52.00;30.00;;;;;;;0.80;90.62;97682.52;103159;1288;22673;-75
2022/12/09 07:26:47;;;;;;;51.10;27.30;;;;;;;0.84;90.47;97669.33;103719;1285;139506;-75
2022/12/09 07:29:14;;;;;;;50.30;28.20;;;;;;;0.86;90.71;97657.02;103469;1304;22589;-75
2022/12/09 07:31:42;;;;;;;58.60;30.90;;;;;;;0.88;90.33;97650.20;103187;1287;22510;-75
2022/12/09 07:34:16;;;;;;;55.80;32.40;;;;;;;0.89;90.30;97650.84;103742;1289;138309;-75
2022/12/09 07:36:53;;;;;;;62.80;33.70;;;;;;;0.89;90.26;97646.00;103574;1297;24315;-75
2022/12/09 07:39:20;;;;;;;61.30;32.80;;;;;;;0.89;90.14;97638.87;103393;1291;139018;-75
2022/12/09 07:41:55;;;;;;;62.50;35.80;;;;;;;0.88;90.06;97642.83;103078;1288;22649;-75
2022/12/09 07:44:23;;;;;;;60.20;33.80;;;;;;;0.91;90.76;97641.80;103440;1312;22607;-74
2022/12/09 07:46:50;;;;;;;59.30;31.80;;;;;;;1.09;92.13;97639.45;103407;1309;138814;-75
2022/12/09 07:49:17;;;;;;;58.40;31.10;;;;;;;1.22;90.85;97632.70;103205;1291;25294;-75
2022/12/09 07:51:44;;;;;;;55.30;31.80;;;;;;;1.24;89.82;97631.08;103036;1305;139986;-75
2022/12/09 07:54:16;;;;;;;52.20;30.00;;;;;;;1.25;89.53;97633.52;103251;1285;24449;-75
2022/12/09 07:56:42;;;;;;;55.10;31.60;;;;;;;1.23;89.36;97630.52;103140;1291;138756;-75
2022/12/09 07:59:11;;;;;;;62.90;30.50;;;;;;;1.21;89.07;97629.05;103250;1312;22490;-74
2022/12/09 08:01:39;;;;;;;61.80;35.70;;;;;;;1.17;89.15;97629.34;103065;1312;22544;-75
2022/12/09 08:04:06;;;;;;;63.80;35.40;;;;;;;1.16;89.16;97629.00;103186;1290;138271;-75
2022/12/09 08:06:34;;;;;;;64.70;36.90;;;;;;;1.16;89.50;97626.98;103082;1289;22941;-75
2022/12/09 08:09:04;;;;;;;62.30;35.40;;;;;;;1.18;89.48;97634.09;103583;1295;138920;-75
2022/12/09 08:11:32;;;;;;;66.50;36.20;;;;;;;1.18;89.31;97643.74;104226;1296;25434;-75
2022/12/09 08:14:01;;;;;;;68.20;36.20;;;;;;;1.19;89.36;97648.67;103578;1310;25383;-75
2022/12/09 08:16:28;;;;;;;56.10;33.00;;;;;;;1.20;89.38;97639.90;103197;1296;138067;-75
2022/12/09 08:18:55;;;;;;;60.40;34.00;;;;;;;1.22;89.74;97640.48;103003;1312;24406;-75
2022/12/09 08:21:31;;;;;;;63.90;35.70;;;;;;;1.23;89.78;97646.21;102918;1304;138488;-75
2022/12/09 08:24:01;;;;;;;65.70;35.70;;;;;;;1.26;89.82;97644.98;103349;1293;25307;-75
2022/12/09 08:26:31;;;;;;;63.00;34.00;;;;;;;1.28;89.70;97648.27;103901;1296;24317;-75
2022/12/09 08:28:57;;;;;;;;;;;;;;;1.30;89.71;97646.80;103140;1301;22504;-75
2022/12/09 08:31:26;;;;;;;65.50;35.90;;;;;;;1.30;89.63;97647.51;103137;1312;23945;-75
2022/12/09 08:33:53;;;;;;;65.20;34.70;;;;;;;1.29;89.70;97646.14;103433;1296;138140;-75
2022/12/09 08:36:23;;;;;;;61.30;34.80;;;;;;;1.31;89.65;97649.20;103552;1285;22514;-75
2022/12/09 08:38:50;;;;;;;68.90;37.40;;;;;;;1.33;89.72;97650.06;103011;1278;138710;-75
2022/12/09 08:41:35;;;;;;;65.30;35.70;;;;;;;1.39;89.76;97649.20;103312;1312;22479;-75
2022/12/09 08:44:11;;;;;;;71.70;38.60;;;;;;;1.45;89.79;97648.78;103021;1307;22554;-75
2022/12/09 08:46:40;;;;;;;68.80;39.60;;;;;;;1.50;89.62;97652.63;103133;1312;138915;-75
2022/12/09 08:49:09;;;;;;;67.20;37.80;;;;;;;1.56;89.79;97651.71;103146;1304;22484;-75
2022/12/09 08:51:36;;;;;;;65.10;35.30;;;;;;;1.64;89.83;97651.54;103186;1289;138166;-75
2022/12/09 08:54:04;;;;;;;72.50;40.90;;;;;;;1.68;89.33;97649.02;103538;1294;22486;-75
2022/12/09 08:56:31;;;;;;;65.50;40.80;;;;;;;1.68;89.34;97645.64;103463;1303;22605;-75
2022/12/09 08:58:58;;;;;;;67.60;41.30;;;;;;;1.67;89.31;97648.02;103335;1297;22481;-75
2022/12/09 09:01:36;;;;;;;67.70;40.00;;;;;;;1.67;89.27;97646.50;102963;1297;23872;-75
2022/12/09 09:04:08;;;;;;;67.40;39.30;;;;;;;1.65;89.26;97645.59;102915;1304;138333;-75
2022/12/09 09:06:37;;;;;;;68.00;39.50;;;;;;;1.67;89.24;97640.02;103042;1312;23572;-75
2022/12/09 09:09:05;;;;;;;67.40;38.90;;;;;;;1.73;89.50;97632.95;103570;1297;138915;-75
2022/12/09 09:11:33;;;;;;;62.50;35.60;;;;;;;1.80;89.34;97633.63;103579;1295;22499;-75
2022/12/09 09:14:03;;;;;;;60.70;36.60;;;;;;;1.85;89.30;97628.58;103361;1282;22489;-75
2022/12/09 09:16:30;;;;;;;61.30;33.70;;;;;;;1.91;89.19;97625.89;103150;1289;138240;-75
2022/12/09 09:18:57;;;;;;;68.60;35.90;;;;;;;1.96;88.92;97626.09;103323;1298;24298;-75
2022/12/09 09:21:25;;;;;;;68.80;35.80;;;;;;;2.00;88.49;97626.62;103265;1311;138037;-75
2022/12/09 09:23:52;;;;;;;63.20;34.40;;;;;;;2.06;88.65;97624.04;103306;1305;24422;-75
2022/12/09 09:26:22;;;;;;;63.90;35.70;;;;;;;2.14;88.87;97627.89;103206;1298;22615;-75
2022/12/09 09:28:50;;;;;;;67.10;35.90;;;;;;;2.23;88.73;97628.29;103005;1312;138304;-75
2022/12/09 09:31:19;;;;;;;60.90;33.80;;;;;;;2.31;88.40;97622.67;103436;1312;22871;-75
2022/12/09 09:33:46;;;;;;;61.40;33.40;;;;;;;2.40;88.14;97629.91;103619;1308;138672;-74
2022/12/09 09:36:19;;;;;;;61.10;34.80;;;;;;;2.45;87.75;97621.45;103230;1302;24257;-75
2022/12/09 09:38:47;;;;;;;58.70;33.00;;;;;;;2.50;87.54;97615.77;103436;1287;138487;-74
2022/12/09 09:41:51;;;;;;;61.80;33.50;;;;;;;2.55;86.93;97620.61;103216;1310;22507;-75
2022/12/09 09:44:17;;;;;;;57.80;30.70;;;;;;;2.61;86.54;97613.31;103378;1291;24222;-74
2022/12/09 09:46:47;;;;;;;60.70;31.20;;;;;;;2.67;86.43;97606.30;103405;1290;139003;-75
2022/12/09 09:49:35;;;;;;;57.40;30.80;;;;;;;2.70;86.52;97604.13;103110;1312;22472;-74
2022/12/09 09:52:15;;;;;;;54.40;28.30;;;;;;;2.76;86.11;97606.04;103745;1288;138151;-74
2022/12/09 09:54:43;;;;;;;51.90;26.50;;;;;;;2.81;85.69;97608.90;104187;1288;25455;-74
2022/12/09 09:57:23;;;;;;;45.70;24.50;;;;;;;2.85;85.28;97610.17;103879;1304;138647;-75
2022/12/09 10:00:05;;;;;;;42.90;22.20;;;;;;;2.99;85.88;97607.67;104722;1283;22964;-75
2022/12/09 10:03:01;;;;;;;42.50;22.90;;;;;;;3.10;84.45;97604.61;103434;1306;139304;-74
2022/12/09 10:05:51;;;;;;;44.30;23.70;;;;;;;3.20;84.20;97602.57;103558;1304;24446;-74
2022/12/09 10:08:33;;;;;;;40.60;23.40;;;;;;;3.31;83.82;97594.52;103645;1293;25393;-74
2022/12/09 10:11:19;;;;;;;44.90;23.90;;;;;;;3.38;83.11;97597.12;103203;1296;24394;-74
2022/12/09 10:14:23;;;;;;;45.50;24.20;;;;;;;3.40;82.48;97590.10;103542;1289;22469;-74
2022/12/09 10:17:21;;;;;;;42.10;23.80;;;;;;;3.41;82.63;97592.04;103310;1288;138016;-74
2022/12/09 10:19:53;;;;;;;45.90;26.40;;;;;;;3.46;82.72;97587.69;103194;1311;23644;-74
2022/12/09 10:22:23;;;;;;;46.10;23.80;;;;;;;3.51;82.17;97582.80;102970;1312;138105;-74
2022/12/09 10:24:54;;;;;;;46.00;24.30;;;;;;;3.54;81.74;97578.67;103054;1307;24073;-74
2022/12/09 10:27:29;;;;;;;43.10;24.30;;;;;;;3.56;81.64;97577.56;103402;1291;138110;-74
2022/12/09 10:30:05;;;;;;;47.40;25.90;;;;;;;3.60;81.33;97568.25;103155;1312;24293;-74
2022/12/09 10:32:34;;;;;;;48.30;25.60;;;;;;;3.63;80.70;97560.98;103298;1313;25260;-74
2022/12/09 10:35:12;;;;;;;43.70;25.00;;;;;;;3.65;80.34;97558.44;103130;1296;25260;-74
2022/12/09 10:37:39;;;;;;;50.20;26.90;;;;;;;3.66;80.27;97555.83;103610;1307;22496;-74
2022/12/09 10:40:06;;;;;;;42.70;24.10;;;;;;;3.64;79.91;97554.59;103068;1288;138164;-74
2022/12/09 10:45:42;;;;;;;50.60;25.90;;;;;;;3.57;80.17;97554.98;103123;1307;138343;-74
2022/12/09 10:48:21;;;;;;;45.10;24.60;;;;;;;3.57;80.31;97550.77;103200;1304;22488;-74
2022/12/09 10:50:55;;;;;;;46.50;24.20;;;;;;;3.58;80.09;97546.40;103413;1287;138266;-74
2022/12/09 10:53:23;;;;;;;44.80;23.30;;;;;;;3.62;80.34;97542.27;103625;1294;22480;-74
2022/12/09 10:55:53;;;;;;;44.10;25.40;;;;;;;3.67;80.23;97542.72;103158;1313;22467;-74
2022/12/09 10:58:25;;;;;;;39.40;21.70;;;;;;;3.69;79.86;97546.88;103111;1304;138676;-74
2022/12/09 11:01:09;;;;;;;41.60;23.20;;;;;;;3.69;79.56;97557.60;103059;1305;22489;-74
2022/12/09 11:03:40;;;;;;;39.50;20.90;;;;;;;3.68;79.52;97559.82;102908;1312;138455;-74
2022/12/09 11:06:28;;;;;;;49.00;24.10;;;;;;;3.70;79.34;97557.52;103061;1312;25544;-74
2022/12/09 11:08:58;;;;;;;45.50;24.80;;;;;;;3.75;79.18;97553.77;103227;1296;138831;-74
2022/12/09 11:11:46;;;;;;;41.60;22.80;;;;;;;3.81;78.99;97549.11;103345;1282;22500;-74
2022/12/09 11:14:35;;;;;;;35.10;20.50;;;;;;;3.85;78.86;97541.49;103145;1300;22918;-74
2022/12/09 11:17:22;;;;;;;36.10;19.10;;;;;;;3.92;79.28;97542.45;103095;1305;22645;-74
2022/12/09 11:20:04;;;;;;;33.80;18.50;;;;;;;3.96;78.51;97540.56;103139;1291;22478;-74
2022/12/09 11:22:39;;;;;;;32.50;18.10;;;;;;;4.03;78.16;97539.03;103148;1312;138417;-74
2022/12/09 11:25:27;;;;;;;39.40;20.80;;;;;;;4.11;77.96;97538.83;103261;1288;22535;-74
2022/12/09 11:28:00;;;;;;;39.80;19.00;;;;;;;4.16;77.76;97539.83;103150;1298;138256;-74
2022/12/09 11:30:35;;;;;;;31.90;17.80;;;;;;;4.22;77.73;97541.25;103205;1313;24257;-74
2022/12/09 11:33:43;;;;;;;32.20;17.60;;;;;;;4.28;77.25;97540.80;103008;1289;138318;-74